sensor_id;sensor_type;location;lat;lon;timestamp;pressure;altitude;pressure_sealevel;temperature;humidity
54314;BME280;50746;52.490;13.320;2023-02-11T00:00:13;102350.0;;;12.4;55.8
54314;BME280;50746;52.490;13.320;2023-02-11T00:01:12;102350.0;;;12.3;56.0
54314;BME280;50746;52.490;13.320;2023-02-11T00:02:10;102340.0;;;12.4;55.5
54314;BME280;50746;52.490;13.320;2023-02-11T00:03:10;102350.0;;;12.3;55.4
54314;BME280;50746;52.490;13.320;2023-02-11T00:05:10;102360.0;;;12.1;56.1
54314;BME280;50746;52.490;13.320;2023-02-11T00:06:10;102350.0;;;12.2;56.0
54314;BME280;50746;52.490;13.320;2023-02-11T00:07:10;102350.0;;;12.4;55.7
54314;BME280;50746;52.490;13.320;2023-02-11T00:09:10;102350.0;;;12.2;56.0
54314;BME280;50746;52.490;13.320;2023-02-11T00:10:10;102350.0;;;12.1;55.8
54314;BME280;50746;52.490;13.320;2023-02-11T00:11:12;102360.0;;;12.3;55.8
54314;BME280;50746;52.490;13.320;2023-02-11T00:12:10;102350.0;;;12.0;56.2
54314;BME280;50746;52.490;13.320;2023-02-11T00:13:10;102370.0;;;11.9;57.0
54314;BME280;50746;52.490;13.320;2023-02-11T00:14:10;102370.0;;;11.6;57.3
54314;BME280;50746;52.490;13.320;2023-02-11T00:16:13;102370.0;;;11.3;59.3
54314;BME280;50746;52.490;13.320;2023-02-11T00:17:10;102380.0;;;11.6;58.6
54314;BME280;50746;52.490;13.320;2023-02-11T00:19:10;102380.0;;;11.8;58.1
54314;BME280;50746;52.490;13.320;2023-02-11T00:20:10;102390.0;;;11.9;57.6
54314;BME280;50746;52.490;13.320;2023-02-11T00:22:10;102390.0;;;11.8;57.6
54314;BME280;50746;52.490;13.320;2023-02-11T00:23:10;102380.0;;;11.5;58.9
54314;BME280;50746;52.490;13.320;2023-02-11T00:24:10;102380.0;;;11.4;59.2
54314;BME280;50746;52.490;13.320;2023-02-11T00:25:10;102390.0;;;11.5;59.1
54314;BME280;50746;52.490;13.320;2023-02-11T00:26:11;102380.0;;;11.3;59.9
54314;BME280;50746;52.490;13.320;2023-02-11T00:27:10;102380.0;;;11.5;60.3
54314;BME280;50746;52.490;13.320;2023-02-11T00:29:10;102370.0;;;11.8;59.2
54314;BME280;50746;52.490;13.320;2023-02-11T00:30:10;102360.0;;;11.5;60.1
54314;BME280;50746;52.490;13.320;2023-02-11T00:31:10;102360.0;;;11.8;59.6
54314;BME280;50746;52.490;13.320;2023-02-11T00:34:10;102350.0;;;11.7;59.9
54314;BME280;50746;52.490;13.320;2023-02-11T00:35:10;102350.0;;;11.8;59.7
54314;BME280;50746;52.490;13.320;2023-02-11T00:36:13;102350.0;;;11.9;59.5
54314;BME280;50746;52.490;13.320;2023-02-11T00:37:10;102350.0;;;12.0;58.9
54314;BME280;50746;52.490;13.320;2023-02-11T00:38:10;102340.0;;;11.8;58.8
54314;BME280;50746;52.490;13.320;2023-02-11T00:40:10;102340.0;;;12.1;59.1
54314;BME280;50746;52.490;13.320;2023-02-11T00:42:13;102340.0;;;11.9;59.1
54314;BME280;50746;52.490;13.320;2023-02-11T00:43:10;102340.0;;;12.0;59.0
54314;BME280;50746;52.490;13.320;2023-02-11T00:44:10;102340.0;;;11.7;60.1
54314;BME280;50746;52.490;13.320;2023-02-11T00:45:10;102340.0;;;11.5;60.7
54314;BME280;50746;52.490;13.320;2023-02-11T00:47:10;102340.0;;;11.9;60.5
54314;BME280;50746;52.490;13.320;2023-02-11T00:48:10;102350.0;;;11.8;59.8
54314;BME280;50746;52.490;13.320;2023-02-11T00:49:10;102360.0;;;11.4;61.6
54314;BME280;50746;52.490;13.320;2023-02-11T00:50:10;102370.0;;;11.7;61.2
54314;BME280;50746;52.490;13.320;2023-02-11T00:51:10;102370.0;;;12.1;60.4
54314;BME280;50746;52.490;13.320;2023-02-11T00:52:10;102370.0;;;12.3;59.2
54314;BME280;50746;52.490;13.320;2023-02-11T00:53:10;102370.0;;;12.2;58.6
54314;BME280;50746;52.490;13.320;2023-02-11T00:55:10;102380.0;;;12.4;58.5
54314;BME280;50746;52.490;13.320;2023-02-11T00:56:10;102370.0;;;11.8;59.9
54314;BME280;50746;52.490;13.320;2023-02-11T00:57:10;102370.0;;;11.9;60.5
54314;BME280;50746;52.490;13.320;2023-02-11T00:58:10;102370.0;;;12.0;59.8
54314;BME280;50746;52.490;13.320;2023-02-11T00:59:10;102360.0;;;12.4;59.1
54314;BME280;50746;52.490;13.320;2023-02-11T01:02:10;102350.0;;;12.3;58.5
54314;BME280;50746;52.490;13.320;2023-02-11T01:03:10;102350.0;;;12.2;59.0
54314;BME280;50746;52.490;13.320;2023-02-11T01:04:10;102350.0;;;12.1;58.9
54314;BME280;50746;52.490;13.320;2023-02-11T01:05:10;102350.0;;;12.2;58.9
54314;BME280;50746;52.490;13.320;2023-02-11T01:07:10;102340.0;;;12.3;59.2
54314;BME280;50746;52.490;13.320;2023-02-11T01:08:10;102340.0;;;11.9;59.8
54314;BME280;50746;52.490;13.320;2023-02-11T01:09:10;102340.0;;;12.1;60.0
54314;BME280;50746;52.490;13.320;2023-02-11T01:10:10;102330.0;;;12.3;59.2
54314;BME280;50746;52.490;13.320;2023-02-11T01:11:12;102340.0;;;12.0;60.4
54314;BME280;50746;52.490;13.320;2023-02-11T01:12:10;102330.0;;;11.9;60.8
54314;BME280;50746;52.490;13.320;2023-02-11T01:13:10;102330.0;;;12.2;60.9
54314;BME280;50746;52.490;13.320;2023-02-11T01:15:11;102320.0;;;12.4;60.9
54314;BME280;50746;52.490;13.320;2023-02-11T01:17:10;102310.0;;;12.5;60.0
54314;BME280;50746;52.490;13.320;2023-02-11T01:18:10;102310.0;;;11.9;61.8
54314;BME280;50746;52.490;13.320;2023-02-11T01:19:10;102300.0;;;12.1;61.6
54314;BME280;50746;52.490;13.320;2023-02-11T01:20:13;102300.0;;;12.4;60.5
54314;BME280;50746;52.490;13.320;2023-02-11T01:21:10;102300.0;;;12.5;60.1
54314;BME280;50746;52.490;13.320;2023-02-11T01:22:10;102290.0;;;12.4;59.7
54314;BME280;50746;52.490;13.320;2023-02-11T01:23:10;102290.0;;;12.3;60.0
54314;BME280;50746;52.490;13.320;2023-02-11T01:25:11;102290.0;;;12.5;59.5
54314;BME280;50746;52.490;13.320;2023-02-11T01:26:10;102280.0;;;12.7;58.8
54314;BME280;50746;52.490;13.320;2023-02-11T01:27:10;102290.0;;;12.8;58.3
54314;BME280;50746;52.490;13.320;2023-02-11T01:28:15;102290.0;;;12.7;58.4
54314;BME280;50746;52.490;13.320;2023-02-11T01:29:10;102300.0;;;12.6;58.5
54314;BME280;50746;52.490;13.320;2023-02-11T01:30:12;102290.0;;;12.2;59.1
54314;BME280;50746;52.490;13.320;2023-02-11T01:31:10;102280.0;;;12.0;60.6
54314;BME280;50746;52.490;13.320;2023-02-11T01:32:10;102280.0;;;12.2;59.8
54314;BME280;50746;52.490;13.320;2023-02-11T01:34:10;102280.0;;;12.3;59.4
54314;BME280;50746;52.490;13.320;2023-02-11T01:35:10;102280.0;;;12.4;59.7
54314;BME280;50746;52.490;13.320;2023-02-11T01:39:10;102280.0;;;12.1;60.1
54314;BME280;50746;52.490;13.320;2023-02-11T01:40:13;102270.0;;;12.6;59.4
54314;BME280;50746;52.490;13.320;2023-02-11T01:42:14;102270.0;;;12.4;59.1
54314;BME280;50746;52.490;13.320;2023-02-11T01:43:10;102270.0;;;12.5;59.6
54314;BME280;50746;52.490;13.320;2023-02-11T01:44:21;102270.0;;;12.4;58.9
54314;BME280;50746;52.490;13.320;2023-02-11T01:46:19;102270.0;;;12.3;60.3
54314;BME280;50746;52.490;13.320;2023-02-11T01:47:10;102260.0;;;12.1;60.4
54314;BME280;50746;52.490;13.320;2023-02-11T01:49:11;102260.0;;;12.4;60.5
54314;BME280;50746;52.490;13.320;2023-02-11T01:51:13;102260.0;;;12.3;60.7
54314;BME280;50746;52.490;13.320;2023-02-11T01:52:13;102250.0;;;12.4;60.2
54314;BME280;50746;52.490;13.320;2023-02-11T01:54:12;102240.0;;;12.2;60.6
54314;BME280;50746;52.490;13.320;2023-02-11T01:55:11;102240.0;;;12.1;61.7
54314;BME280;50746;52.490;13.320;2023-02-11T01:56:10;102230.0;;;12.5;60.7
54314;BME280;50746;52.490;13.320;2023-02-11T01:57:12;102240.0;;;12.4;60.0
54314;BME280;50746;52.490;13.320;2023-02-11T01:59:13;102250.0;;;12.6;60.8
54314;BME280;50746;52.490;13.320;2023-02-11T02:01:12;102250.0;;;12.3;61.2
54314;BME280;50746;52.490;13.320;2023-02-11T02:02:11;102250.0;;;12.2;60.9
54314;BME280;50746;52.490;13.320;2023-02-11T02:03:13;102250.0;;;12.5;60.9
54314;BME280;50746;52.490;13.320;2023-02-11T02:05:18;102260.0;;;12.1;62.4
54314;BME280;50746;52.490;13.320;2023-02-11T02:07:13;102250.0;;;11.8;63.9
54314;BME280;50746;52.490;13.320;2023-02-11T02:08:15;102240.0;;;12.1;63.9
54314;BME280;50746;52.490;13.320;2023-02-11T02:09:12;102240.0;;;12.5;62.4
54314;BME280;50746;52.490;13.320;2023-02-11T02:10:13;102250.0;;;12.0;64.3
54314;BME280;50746;52.490;13.320;2023-02-11T02:11:10;102240.0;;;12.2;64.0
54314;BME280;50746;52.490;13.320;2023-02-11T02:13:10;102240.0;;;12.6;62.8
54314;BME280;50746;52.490;13.320;2023-02-11T02:14:10;102240.0;;;12.1;63.3
54314;BME280;50746;52.490;13.320;2023-02-11T02:15:18;102250.0;;;12.6;62.8
54314;BME280;50746;52.490;13.320;2023-02-11T02:16:11;102240.0;;;12.5;62.4
54314;BME280;50746;52.490;13.320;2023-02-11T02:17:18;102250.0;;;12.7;61.8
54314;BME280;50746;52.490;13.320;2023-02-11T02:18:18;102250.0;;;12.9;61.5
54314;BME280;50746;52.490;13.320;2023-02-11T02:19:32;;;;13.0;
54314;BME280;50746;52.490;13.320;2023-02-11T02:21:23;102250.0;;;12.6;61.8
54314;BME280;50746;52.490;13.320;2023-02-11T02:22:26;102250.0;;;12.8;62.0
54314;BME280;50746;52.490;13.320;2023-02-11T02:25:19;102230.0;;;12.9;61.2
54314;BME280;50746;52.490;13.320;2023-02-11T02:26:26;102240.0;;;12.8;61.6
54314;BME280;50746;52.490;13.320;2023-02-11T02:27:23;102240.0;;;12.7;62.2
54314;BME280;50746;52.490;13.320;2023-02-11T02:28:27;102240.0;;;12.4;63.1
54314;BME280;50746;52.490;13.320;2023-02-11T02:29:23;102250.0;;;12.7;63.0
54314;BME280;50746;52.490;13.320;2023-02-11T02:30:18;102240.0;;;12.2;64.7
54314;BME280;50746;52.490;13.320;2023-02-11T02:31:25;102240.0;;;12.4;64.7
54314;BME280;50746;52.490;13.320;2023-02-11T02:32:17;102250.0;;;12.7;64.0
54314;BME280;50746;52.490;13.320;2023-02-11T02:33:16;102240.0;;;12.6;64.0
54314;BME280;50746;52.490;13.320;2023-02-11T02:34:14;102240.0;;;12.5;64.3
54314;BME280;50746;52.490;13.320;2023-02-11T02:35:17;102240.0;;;12.7;63.4
54314;BME280;50746;52.490;13.320;2023-02-11T02:36:14;102240.0;;;12.8;63.7
54314;BME280;50746;52.490;13.320;2023-02-11T02:38:12;102240.0;;;13.0;62.4
54314;BME280;50746;52.490;13.320;2023-02-11T02:39:13;102230.0;;;13.1;62.5
54314;BME280;50746;52.490;13.320;2023-02-11T02:41:12;102230.0;;;13.3;61.3
54314;BME280;50746;52.490;13.320;2023-02-11T02:44:10;102220.0;;;13.2;61.0
54314;BME280;50746;52.490;13.320;2023-02-11T02:46:12;102220.0;;;13.1;61.4
54314;BME280;50746;52.490;13.320;2023-02-11T02:48:22;102220.0;;;12.9;62.6
54314;BME280;50746;52.490;13.320;2023-02-11T02:49:12;102210.0;;;12.8;64.0
54314;BME280;50746;52.490;13.320;2023-02-11T02:50:12;102210.0;;;12.9;63.8
54314;BME280;50746;52.490;13.320;2023-02-11T02:51:18;102200.0;;;12.7;64.2
54314;BME280;50746;52.490;13.320;2023-02-11T02:52:16;102190.0;;;12.9;64.9
54314;BME280;50746;52.490;13.320;2023-02-11T02:53:17;102190.0;;;12.8;65.0
54314;BME280;50746;52.490;13.320;2023-02-11T02:56:13;102210.0;;;12.7;65.2
54314;BME280;50746;52.490;13.320;2023-02-11T02:57:23;102210.0;;;12.9;65.2
54314;BME280;50746;52.490;13.320;2023-02-11T02:59:17;102210.0;;;12.4;67.0
54314;BME280;50746;52.490;13.320;2023-02-11T03:00:15;102220.0;;;12.9;65.6
54314;BME280;50746;52.490;13.320;2023-02-11T03:01:17;102220.0;;;13.2;64.2
54314;BME280;50746;52.490;13.320;2023-02-11T03:02:14;102210.0;;;12.9;64.9
54314;BME280;50746;52.490;13.320;2023-02-11T03:03:17;102210.0;;;13.1;64.4
54314;BME280;50746;52.490;13.320;2023-02-11T03:04:13;102200.0;;;13.4;63.7
54314;BME280;50746;52.490;13.320;2023-02-11T03:05:15;102190.0;;;13.1;63.7
54314;BME280;50746;52.490;13.320;2023-02-11T03:06:13;102200.0;;;12.9;65.7
54314;BME280;50746;52.490;13.320;2023-02-11T03:07:16;102190.0;;;13.1;65.4
54314;BME280;50746;52.490;13.320;2023-02-11T03:08:14;102200.0;;;12.7;65.9
54314;BME280;50746;52.490;13.320;2023-02-11T03:09:13;102190.0;;;13.2;64.9
54314;BME280;50746;52.490;13.320;2023-02-11T03:10:13;102200.0;;;13.0;65.2
54314;BME280;50746;52.490;13.320;2023-02-11T03:11:10;102190.0;;;12.6;67.7
54314;BME280;50746;52.490;13.320;2023-02-11T03:12:11;102200.0;;;13.2;65.5
54314;BME280;50746;52.490;13.320;2023-02-11T03:13:11;102200.0;;;13.0;64.9
54314;BME280;50746;52.490;13.320;2023-02-11T03:14:12;102200.0;;;13.2;64.4
54314;BME280;50746;52.490;13.320;2023-02-11T03:15:11;102200.0;;;12.8;66.7
54314;BME280;50746;52.490;13.320;2023-02-11T03:16:12;102190.0;;;12.9;67.0
54314;BME280;50746;52.490;13.320;2023-02-11T03:18:12;102200.0;;;12.7;67.8
54314;BME280;50746;52.490;13.320;2023-02-11T03:19:12;102190.0;;;13.2;66.6
54314;BME280;50746;52.490;13.320;2023-02-11T03:21:10;102190.0;;;12.8;67.8
54314;BME280;50746;52.490;13.320;2023-02-11T03:22:15;102190.0;;;12.6;69.6
54314;BME280;50746;52.490;13.320;2023-02-11T03:23:12;102180.0;;;12.4;69.9
54314;BME280;50746;52.490;13.320;2023-02-11T03:24:13;102180.0;;;13.0;68.8
54314;BME280;50746;52.490;13.320;2023-02-11T03:25:10;102190.0;;;13.1;67.7
54314;BME280;50746;52.490;13.320;2023-02-11T03:26:13;102190.0;;;13.4;65.7
54314;BME280;50746;52.490;13.320;2023-02-11T03:27:14;102190.0;;;13.0;67.1
54314;BME280;50746;52.490;13.320;2023-02-11T03:28:15;102190.0;;;12.8;68.3
54314;BME280;50746;52.490;13.320;2023-02-11T03:29:16;102200.0;;;12.9;69.1
54314;BME280;50746;52.490;13.320;2023-02-11T03:30:12;102190.0;;;12.5;70.3
54314;BME280;50746;52.490;13.320;2023-02-11T03:31:13;102200.0;;;12.8;70.5
54314;BME280;50746;52.490;13.320;2023-02-11T03:32:13;102190.0;;;13.0;68.9
54314;BME280;50746;52.490;13.320;2023-02-11T03:33:13;102200.0;;;13.4;66.8
54314;BME280;50746;52.490;13.320;2023-02-11T03:34:13;102190.0;;;13.5;65.3
54314;BME280;50746;52.490;13.320;2023-02-11T03:35:13;102190.0;;;13.2;66.5
54314;BME280;50746;52.490;13.320;2023-02-11T03:36:11;102190.0;;;13.6;65.2
54314;BME280;50746;52.490;13.320;2023-02-11T03:38:13;102200.0;;;13.7;64.7
54314;BME280;50746;52.490;13.320;2023-02-11T03:39:11;102200.0;;;13.9;63.5
54314;BME280;50746;52.490;13.320;2023-02-11T03:40:12;102200.0;;;13.7;63.5
54314;BME280;50746;52.490;13.320;2023-02-11T03:41:12;102200.0;;;13.8;63.7
54314;BME280;50746;52.490;13.320;2023-02-11T03:44:11;102200.0;;;13.4;64.4
54314;BME280;50746;52.490;13.320;2023-02-11T03:46:11;102190.0;;;13.6;65.2
54314;BME280;50746;52.490;13.320;2023-02-11T03:47:11;102190.0;;;13.8;63.9
54314;BME280;50746;52.490;13.320;2023-02-11T03:48:13;102190.0;;;13.5;64.2
54314;BME280;50746;52.490;13.320;2023-02-11T03:49:11;102190.0;;;13.1;67.3
54314;BME280;50746;52.490;13.320;2023-02-11T03:50:11;102180.0;;;13.2;67.2
54314;BME280;50746;52.490;13.320;2023-02-11T03:51:11;102180.0;;;13.4;66.4
54314;BME280;50746;52.490;13.320;2023-02-11T03:52:11;102180.0;;;13.6;65.2
54314;BME280;50746;52.490;13.320;2023-02-11T03:53:10;102180.0;;;13.1;67.7
54314;BME280;50746;52.490;13.320;2023-02-11T03:54:13;102190.0;;;13.2;68.7
54314;BME280;50746;52.490;13.320;2023-02-11T03:56:13;102190.0;;;13.4;67.2
54314;BME280;50746;52.490;13.320;2023-02-11T03:57:10;102190.0;;;13.1;69.1
54314;BME280;50746;52.490;13.320;2023-02-11T03:58:10;102190.0;;;13.2;68.3
54314;BME280;50746;52.490;13.320;2023-02-11T03:59:10;102190.0;;;13.3;68.4
54314;BME280;50746;52.490;13.320;2023-02-11T04:00:10;102200.0;;;13.2;69.5
54314;BME280;50746;52.490;13.320;2023-02-11T04:01:10;102200.0;;;13.3;69.0
54314;BME280;50746;52.490;13.320;2023-02-11T04:02:10;102200.0;;;13.2;69.1
54314;BME280;50746;52.490;13.320;2023-02-11T04:03:11;102200.0;;;13.4;68.8
54314;BME280;50746;52.490;13.320;2023-02-11T04:04:10;102200.0;;;13.3;68.3
54314;BME280;50746;52.490;13.320;2023-02-11T04:05:13;102200.0;;;13.1;68.7
54314;BME280;50746;52.490;13.320;2023-02-11T04:06:10;102200.0;;;13.3;70.2
54314;BME280;50746;52.490;13.320;2023-02-11T04:07:10;102190.0;;;13.2;69.4
54314;BME280;50746;52.490;13.320;2023-02-11T04:08:10;102190.0;;;13.4;68.6
54314;BME280;50746;52.490;13.320;2023-02-11T04:09:10;102190.0;;;13.6;67.9
54314;BME280;50746;52.490;13.320;2023-02-11T04:10:10;102190.0;;;13.2;69.8
54314;BME280;50746;52.490;13.320;2023-02-11T04:11:10;102180.0;;;13.5;69.2
54314;BME280;50746;52.490;13.320;2023-02-11T04:12:10;102190.0;;;13.4;68.1
54314;BME280;50746;52.490;13.320;2023-02-11T04:13:10;102190.0;;;13.3;68.9
54314;BME280;50746;52.490;13.320;2023-02-11T04:14:10;102180.0;;;13.4;69.1
54314;BME280;50746;52.490;13.320;2023-02-11T04:16:10;102180.0;;;13.6;68.9
54314;BME280;50746;52.490;13.320;2023-02-11T04:17:10;102180.0;;;13.8;67.6
54314;BME280;50746;52.490;13.320;2023-02-11T04:18:10;102180.0;;;13.6;68.5
54314;BME280;50746;52.490;13.320;2023-02-11T04:20:10;102200.0;;;13.2;71.3
54314;BME280;50746;52.490;13.320;2023-02-11T04:21:10;102190.0;;;13.3;70.6
54314;BME280;50746;52.490;13.320;2023-02-11T04:22:10;102190.0;;;13.5;69.3
54314;BME280;50746;52.490;13.320;2023-02-11T04:23:10;102190.0;;;13.4;70.4
54314;BME280;50746;52.490;13.320;2023-02-11T04:26:10;102200.0;;;13.3;72.0
54314;BME280;50746;52.490;13.320;2023-02-11T04:28:10;102190.0;;;13.7;70.3
54314;BME280;50746;52.490;13.320;2023-02-11T04:29:10;102200.0;;;13.6;70.3
54314;BME280;50746;52.490;13.320;2023-02-11T04:30:11;102190.0;;;13.1;71.9
54314;BME280;50746;52.490;13.320;2023-02-11T04:32:10;102190.0;;;13.3;72.9
54314;BME280;50746;52.490;13.320;2023-02-11T04:33:10;102190.0;;;13.6;71.6
54314;BME280;50746;52.490;13.320;2023-02-11T04:34:10;102190.0;;;13.7;71.2
54314;BME280;50746;52.490;13.320;2023-02-11T04:35:10;102190.0;;;14.0;68.9
54314;BME280;50746;52.490;13.320;2023-02-11T04:36:10;102190.0;;;13.0;74.6
54314;BME280;50746;52.490;13.320;2023-02-11T04:37:10;102190.0;;;13.4;73.9
54314;BME280;50746;52.490;13.320;2023-02-11T04:38:10;102190.0;;;13.0;76.6
54314;BME280;50746;52.490;13.320;2023-02-11T04:39:10;102190.0;;;12.9;79.2
54314;BME280;50746;52.490;13.320;2023-02-11T04:40:10;102180.0;;;13.4;77.2
54314;BME280;50746;52.490;13.320;2023-02-11T04:41:10;102190.0;;;13.1;79.2
54314;BME280;50746;52.490;13.320;2023-02-11T04:42:10;102180.0;;;13.2;78.0
54314;BME280;50746;52.490;13.320;2023-02-11T04:43:10;102180.0;;;13.0;80.6
54314;BME280;50746;52.490;13.320;2023-02-11T04:44:10;102180.0;;;13.3;78.2
54314;BME280;50746;52.490;13.320;2023-02-11T04:45:10;102190.0;;;13.2;79.5
54314;BME280;50746;52.490;13.320;2023-02-11T04:46:10;102180.0;;;13.1;79.8
54314;BME280;50746;52.490;13.320;2023-02-11T04:47:10;102180.0;;;12.9;81.0
54314;BME280;50746;52.490;13.320;2023-02-11T04:48:10;102170.0;;;13.0;82.2
54314;BME280;50746;52.490;13.320;2023-02-11T04:49:12;102170.0;;;12.9;82.1
54314;BME280;50746;52.490;13.320;2023-02-11T04:50:10;102170.0;;;13.1;82.1
54314;BME280;50746;52.490;13.320;2023-02-11T04:51:10;102180.0;;;13.3;79.8
54314;BME280;50746;52.490;13.320;2023-02-11T04:53:10;102170.0;;;13.2;81.0
54314;BME280;50746;52.490;13.320;2023-02-11T04:55:10;102170.0;;;13.1;81.3
54314;BME280;50746;52.490;13.320;2023-02-11T04:57:10;102160.0;;;13.5;78.7
54314;BME280;50746;52.490;13.320;2023-02-11T05:00:11;102160.0;;;13.2;80.0
54314;BME280;50746;52.490;13.320;2023-02-11T05:01:11;102150.0;;;13.6;78.8
54314;BME280;50746;52.490;13.320;2023-02-11T05:02:10;102140.0;;;13.7;77.0
54314;BME280;50746;52.490;13.320;2023-02-11T05:03:10;102150.0;;;13.5;77.9
54314;BME280;50746;52.490;13.320;2023-02-11T05:04:10;102150.0;;;13.7;77.7
54314;BME280;50746;52.490;13.320;2023-02-11T05:05:10;102160.0;;;13.4;77.3
54314;BME280;50746;52.490;13.320;2023-02-11T05:06:10;102150.0;;;13.5;78.3
54314;BME280;50746;52.490;13.320;2023-02-11T05:07:10;102140.0;;;13.9;75.9
54314;BME280;50746;52.490;13.320;2023-02-11T05:08:10;102150.0;;;13.6;76.1
54314;BME280;50746;52.490;13.320;2023-02-11T05:09:11;102150.0;;;13.3;79.7
54314;BME280;50746;52.490;13.320;2023-02-11T05:10:10;102150.0;;;13.4;80.3
54314;BME280;50746;52.490;13.320;2023-02-11T05:11:15;102140.0;;;13.6;79.7
54314;BME280;50746;52.490;13.320;2023-02-11T05:12:10;102140.0;;;13.7;78.5
54314;BME280;50746;52.490;13.320;2023-02-11T05:13:10;102130.0;;;13.8;77.9
54314;BME280;50746;52.490;13.320;2023-02-11T05:14:10;102130.0;;;13.6;78.6
54314;BME280;50746;52.490;13.320;2023-02-11T05:18:10;102140.0;;;13.5;81.6
54314;BME280;50746;52.490;13.320;2023-02-11T05:19:10;102130.0;;;13.4;82.2
54314;BME280;50746;52.490;13.320;2023-02-11T05:21:12;102120.0;;;13.5;82.9
54314;BME280;50746;52.490;13.320;2023-02-11T05:22:10;102120.0;;;13.4;82.9
54314;BME280;50746;52.490;13.320;2023-02-11T05:23:10;102120.0;;;13.5;82.5
54314;BME280;50746;52.490;13.320;2023-02-11T05:24:10;102120.0;;;13.7;81.4
54314;BME280;50746;52.490;13.320;2023-02-11T05:26:10;102110.0;;;13.8;81.3
54314;BME280;50746;52.490;13.320;2023-02-11T05:28:10;102120.0;;;13.3;84.5
54314;BME280;50746;52.490;13.320;2023-02-11T05:29:10;102120.0;;;12.8;87.0
54314;BME280;50746;52.490;13.320;2023-02-11T05:30:10;102110.0;;;13.0;89.3
54314;BME280;50746;52.490;13.320;2023-02-11T05:31:10;102110.0;;;12.9;89.8
54314;BME280;50746;52.490;13.320;2023-02-11T05:32:10;102100.0;;;12.8;90.4
54314;BME280;50746;52.490;13.320;2023-02-11T05:33:10;102100.0;;;13.1;89.5
54314;BME280;50746;52.490;13.320;2023-02-11T05:34:10;102110.0;;;12.8;90.4
54314;BME280;50746;52.490;13.320;2023-02-11T05:35:10;102110.0;;;13.2;88.5
54314;BME280;50746;52.490;13.320;2023-02-11T05:37:10;102100.0;;;13.1;89.4
54314;BME280;50746;52.490;13.320;2023-02-11T05:40:10;102110.0;;;13.2;89.1
54314;BME280;50746;52.490;13.320;2023-02-11T05:42:10;102100.0;;;13.3;89.5
54314;BME280;50746;52.490;13.320;2023-02-11T05:43:10;102100.0;;;13.6;87.4
54314;BME280;50746;52.490;13.320;2023-02-11T05:44:10;102090.0;;;13.5;87.2
54314;BME280;50746;52.490;13.320;2023-02-11T05:45:10;102100.0;;;13.3;90.2
54314;BME280;50746;52.490;13.320;2023-02-11T05:46:10;102090.0;;;13.4;89.0
54314;BME280;50746;52.490;13.320;2023-02-11T05:47:10;102080.0;;;13.5;89.3
54314;BME280;50746;52.490;13.320;2023-02-11T05:49:10;102090.0;;;13.1;90.7
54314;BME280;50746;52.490;13.320;2023-02-11T05:50:10;102080.0;;;13.5;90.1
54314;BME280;50746;52.490;13.320;2023-02-11T05:51:10;102080.0;;;12.9;93.6
54314;BME280;50746;52.490;13.320;2023-02-11T05:52:10;102090.0;;;13.2;92.7
54314;BME280;50746;52.490;13.320;2023-02-11T05:53:10;102080.0;;;13.1;94.2
54314;BME280;50746;52.490;13.320;2023-02-11T05:54:10;102080.0;;;13.4;92.8
54314;BME280;50746;52.490;13.320;2023-02-11T05:55:10;102080.0;;;13.5;90.6
54314;BME280;50746;52.490;13.320;2023-02-11T05:56:10;102100.0;;;13.6;90.9
54314;BME280;50746;52.490;13.320;2023-02-11T05:57:10;102090.0;;;12.7;97.4
54314;BME280;50746;52.490;13.320;2023-02-11T05:58:10;102100.0;;;12.4;99.7
54314;BME280;50746;52.490;13.320;2023-02-11T05:59:11;102100.0;;;12.6;100.0
54314;BME280;50746;52.490;13.320;2023-02-11T06:00:10;102100.0;;;12.8;100.0
54314;BME280;50746;52.490;13.320;2023-02-11T06:01:10;102090.0;;;13.1;97.7
54314;BME280;50746;52.490;13.320;2023-02-11T06:02:11;102100.0;;;13.0;97.1
54314;BME280;50746;52.490;13.320;2023-02-11T06:03:10;102110.0;;;12.8;99.8
54314;BME280;50746;52.490;13.320;2023-02-11T06:04:10;102100.0;;;12.7;100.0
54314;BME280;50746;52.490;13.320;2023-02-11T06:05:10;102090.0;;;13.1;98.6
54314;BME280;50746;52.490;13.320;2023-02-11T06:06:10;102090.0;;;13.4;95.4
54314;BME280;50746;52.490;13.320;2023-02-11T06:07:10;102090.0;;;13.0;97.3
54314;BME280;50746;52.490;13.320;2023-02-11T06:08:10;102110.0;;;13.4;95.9
54314;BME280;50746;52.490;13.320;2023-02-11T06:09:10;102110.0;;;12.8;99.4
54314;BME280;50746;52.490;13.320;2023-02-11T06:10:10;102110.0;;;13.2;99.1
54314;BME280;50746;52.490;13.320;2023-02-11T06:11:10;102110.0;;;13.1;97.8
54314;BME280;50746;52.490;13.320;2023-02-11T06:12:10;102120.0;;;12.8;100.0
54314;BME280;50746;52.490;13.320;2023-02-11T06:13:10;102120.0;;;13.4;98.3
54314;BME280;50746;52.490;13.320;2023-02-11T06:14:10;102120.0;;;13.1;98.3
54314;BME280;50746;52.490;13.320;2023-02-11T06:15:10;102120.0;;;13.4;97.3
54314;BME280;50746;52.490;13.320;2023-02-11T06:17:10;102110.0;;;13.3;97.2
54314;BME280;50746;52.490;13.320;2023-02-11T06:18:10;102100.0;;;13.2;97.4
54314;BME280;50746;52.490;13.320;2023-02-11T06:20:10;102110.0;;;13.1;100.0
54314;BME280;50746;52.490;13.320;2023-02-11T06:21:10;102100.0;;;12.9;100.0
54314;BME280;50746;52.490;13.320;2023-02-11T06:22:10;102110.0;;;13.0;100.0
54314;BME280;50746;52.490;13.320;2023-02-11T06:23:10;102110.0;;;13.2;100.0
54314;BME280;50746;52.490;13.320;2023-02-11T06:24:10;102110.0;;;13.4;98.7
54314;BME280;50746;52.490;13.320;2023-02-11T06:25:10;102120.0;;;12.7;100.0
54314;BME280;50746;52.490;13.320;2023-02-11T06:26:16;102110.0;;;13.1;100.0
54314;BME280;50746;52.490;13.320;2023-02-11T06:27:10;102110.0;;;12.5;100.0
54314;BME280;50746;52.490;13.320;2023-02-11T06:28:10;102110.0;;;12.9;100.0
54314;BME280;50746;52.490;13.320;2023-02-11T06:29:10;102110.0;;;13.1;100.0
54314;BME280;50746;52.490;13.320;2023-02-11T06:30:11;102110.0;;;12.9;100.0
54314;BME280;50746;52.490;13.320;2023-02-11T06:31:10;102100.0;;;13.1;100.0
54314;BME280;50746;52.490;13.320;2023-02-11T06:32:10;102100.0;;;13.2;100.0
54314;BME280;50746;52.490;13.320;2023-02-11T06:33:10;102100.0;;;13.3;100.0
54314;BME280;50746;52.490;13.320;2023-02-11T06:34:10;102090.0;;;13.7;98.6
54314;BME280;50746;52.490;13.320;2023-02-11T06:35:10;102090.0;;;13.6;98.0
54314;BME280;50746;52.490;13.320;2023-02-11T06:36:12;102090.0;;;13.9;98.0